sensor_id;sensor_type;location;lat;lon;timestamp;P1;durP1;ratioP1;P2;durP2;ratioP2
2680;SDS011;1350;42.134;24.708;2023-07-29T00:02:23;8.30;;;4.57;;
2680;SDS011;1350;42.134;24.708;2023-07-29T00:04:50;9.67;;;5.00;;
2680;SDS011;1350;42.134;24.708;2023-07-29T00:07:16;9.33;;;5.43;;
2680;SDS011;1350;42.134;24.708;2023-07-29T00:09:43;10.47;;;5.07;;
2680;SDS011;1350;42.134;24.708;2023-07-29T00:12:10;10.83;;;5.27;;
2680;SDS011;1350;42.134;24.708;2023-07-29T00:14:38;8.80;;;5.77;;
2680;SDS011;1350;42.134;24.708;2023-07-29T00:17:05;7.70;;;5.10;;
2680;SDS011;1350;42.134;24.708;2023-07-29T00:19:31;7.83;;;4.47;;
2680;SDS011;1350;42.134;24.708;2023-07-29T00:21:58;11.30;;;4.93;;
2680;SDS011;1350;42.134;24.708;2023-07-29T00:24:25;9.73;;;5.27;;
2680;SDS011;1350;42.134;24.708;2023-07-29T00:26:52;10.07;;;4.83;;
2680;SDS011;1350;42.134;24.708;2023-07-29T00:29:18;8.40;;;5.57;;
2680;SDS011;1350;42.134;24.708;2023-07-29T00:31:47;8.30;;;5.10;;
2680;SDS011;1350;42.134;24.708;2023-07-29T00:34:13;9.67;;;5.27;;
2680;SDS011;1350;42.134;24.708;2023-07-29T00:36:43;8.67;;;5.23;;
2680;SDS011;1350;42.134;24.708;2023-07-29T00:39:10;8.57;;;5.30;;
2680;SDS011;1350;42.134;24.708;2023-07-29T00:41:37;8.00;;;5.20;;
2680;SDS011;1350;42.134;24.708;2023-07-29T00:44:04;10.73;;;5.43;;
2680;SDS011;1350;42.134;24.708;2023-07-29T00:46:32;8.43;;;5.47;;
2680;SDS011;1350;42.134;24.708;2023-07-29T00:49:02;18.50;;;6.70;;
2680;SDS011;1350;42.134;24.708;2023-07-29T00:51:29;9.17;;;6.00;;
2680;SDS011;1350;42.134;24.708;2023-07-29T00:53:55;8.87;;;5.80;;
2680;SDS011;1350;42.134;24.708;2023-07-29T00:56:22;9.83;;;6.40;;
2680;SDS011;1350;42.134;24.708;2023-07-29T00:58:49;9.33;;;5.60;;
2680;SDS011;1350;42.134;24.708;2023-07-29T01:01:23;10.30;;;7.07;;
2680;SDS011;1350;42.134;24.708;2023-07-29T01:03:50;10.30;;;6.30;;
2680;SDS011;1350;42.134;24.708;2023-07-29T01:06:20;8.43;;;5.70;;
2680;SDS011;1350;42.134;24.708;2023-07-29T01:09:01;9.57;;;6.43;;
2680;SDS011;1350;42.134;24.708;2023-07-29T01:11:33;10.23;;;6.33;;
2680;SDS011;1350;42.134;24.708;2023-07-29T01:14:06;9.50;;;5.90;;
2680;SDS011;1350;42.134;24.708;2023-07-29T01:16:41;10.70;;;6.93;;
2680;SDS011;1350;42.134;24.708;2023-07-29T01:19:24;13.73;;;7.97;;
2680;SDS011;1350;42.134;24.708;2023-07-29T01:22:04;8.63;;;6.80;;
2680;SDS011;1350;42.134;24.708;2023-07-29T01:24:35;13.60;;;7.77;;
2680;SDS011;1350;42.134;24.708;2023-07-29T01:27:01;12.10;;;7.70;;
2680;SDS011;1350;42.134;24.708;2023-07-29T01:29:29;12.80;;;7.53;;
2680;SDS011;1350;42.134;24.708;2023-07-29T01:31:57;9.97;;;6.90;;
2680;SDS011;1350;42.134;24.708;2023-07-29T01:34:29;8.57;;;6.10;;
2680;SDS011;1350;42.134;24.708;2023-07-29T01:37:01;8.97;;;6.30;;
2680;SDS011;1350;42.134;24.708;2023-07-29T01:39:31;10.23;;;6.70;;
2680;SDS011;1350;42.134;24.708;2023-07-29T01:42:01;10.10;;;6.27;;
2680;SDS011;1350;42.134;24.708;2023-07-29T01:44:29;10.73;;;6.50;;
2680;SDS011;1350;42.134;24.708;2023-07-29T01:46:56;9.17;;;6.60;;
2680;SDS011;1350;42.134;24.708;2023-07-29T01:49:23;10.67;;;7.20;;
2680;SDS011;1350;42.134;24.708;2023-07-29T01:51:49;11.37;;;8.40;;
2680;SDS011;1350;42.134;24.708;2023-07-29T01:54:16;9.40;;;7.60;;
2680;SDS011;1350;42.134;24.708;2023-07-29T01:56:43;12.03;;;6.80;;
2680;SDS011;1350;42.134;24.708;2023-07-29T01:59:11;13.03;;;6.53;;
2680;SDS011;1350;42.134;24.708;2023-07-29T02:01:39;8.80;;;6.80;;
2680;SDS011;1350;42.134;24.708;2023-07-29T02:04:06;14.40;;;8.17;;
2680;SDS011;1350;42.134;24.708;2023-07-29T02:06:33;13.10;;;6.90;;
2680;SDS011;1350;42.134;24.708;2023-07-29T02:08:59;10.37;;;7.40;;
2680;SDS011;1350;42.134;24.708;2023-07-29T02:11:26;11.00;;;7.70;;
2680;SDS011;1350;42.134;24.708;2023-07-29T02:13:53;12.50;;;8.10;;
2680;SDS011;1350;42.134;24.708;2023-07-29T02:16:21;10.43;;;7.67;;
2680;SDS011;1350;42.134;24.708;2023-07-29T02:18:49;12.03;;;9.37;;
2680;SDS011;1350;42.134;24.708;2023-07-29T02:21:15;13.90;;;9.73;;
2680;SDS011;1350;42.134;24.708;2023-07-29T02:23:42;10.63;;;8.53;;
2680;SDS011;1350;42.134;24.708;2023-07-29T02:26:09;10.50;;;7.70;;
2680;SDS011;1350;42.134;24.708;2023-07-29T02:28:36;12.97;;;8.50;;
2680;SDS011;1350;42.134;24.708;2023-07-29T02:31:09;10.13;;;8.40;;
2680;SDS011;1350;42.134;24.708;2023-07-29T02:33:42;9.50;;;6.97;;
2680;SDS011;1350;42.134;24.708;2023-07-29T02:36:11;11.70;;;8.30;;
2680;SDS011;1350;42.134;24.708;2023-07-29T02:38:38;11.93;;;7.73;;
2680;SDS011;1350;42.134;24.708;2023-07-29T02:41:05;13.30;;;7.50;;
2680;SDS011;1350;42.134;24.708;2023-07-29T02:43:33;11.80;;;7.60;;
2680;SDS011;1350;42.134;24.708;2023-07-29T02:46:00;11.20;;;8.67;;
2680;SDS011;1350;42.134;24.708;2023-07-29T02:48:27;9.77;;;7.77;;
2680;SDS011;1350;42.134;24.708;2023-07-29T02:50:55;13.60;;;8.20;;
2680;SDS011;1350;42.134;24.708;2023-07-29T02:53:22;12.33;;;9.03;;
2680;SDS011;1350;42.134;24.708;2023-07-29T02:55:49;12.50;;;8.40;;
2680;SDS011;1350;42.134;24.708;2023-07-29T02:58:16;11.70;;;7.73;;
2680;SDS011;1350;42.134;24.708;2023-07-29T03:00:42;16.23;;;7.77;;
2680;SDS011;1350;42.134;24.708;2023-07-29T03:03:09;12.00;;;8.47;;
2680;SDS011;1350;42.134;24.708;2023-07-29T03:05:36;20.73;;;9.10;;
2680;SDS011;1350;42.134;24.708;2023-07-29T03:08:05;16.70;;;10.63;;
2680;SDS011;1350;42.134;24.708;2023-07-29T03:10:34;15.77;;;7.80;;
2680;SDS011;1350;42.134;24.708;2023-07-29T03:13:01;10.70;;;8.03;;
2680;SDS011;1350;42.134;24.708;2023-07-29T03:15:28;10.57;;;7.37;;
2680;SDS011;1350;42.134;24.708;2023-07-29T03:17:54;9.83;;;7.17;;
2680;SDS011;1350;42.134;24.708;2023-07-29T03:20:21;14.17;;;7.53;;
2680;SDS011;1350;42.134;24.708;2023-07-29T03:22:48;13.03;;;6.30;;
2680;SDS011;1350;42.134;24.708;2023-07-29T03:25:16;13.07;;;7.73;;
2680;SDS011;1350;42.134;24.708;2023-07-29T03:27:43;12.00;;;7.10;;
2680;SDS011;1350;42.134;24.708;2023-07-29T03:30:10;9.23;;;6.50;;
2680;SDS011;1350;42.134;24.708;2023-07-29T03:32:39;10.90;;;6.20;;
2680;SDS011;1350;42.134;24.708;2023-07-29T03:35:10;9.63;;;6.93;;
2680;SDS011;1350;42.134;24.708;2023-07-29T03:37:37;9.50;;;7.13;;
2680;SDS011;1350;42.134;24.708;2023-07-29T03:40:04;12.93;;;7.57;;
2680;SDS011;1350;42.134;24.708;2023-07-29T03:42:33;9.80;;;6.77;;
2680;SDS011;1350;42.134;24.708;2023-07-29T03:45:00;9.97;;;6.97;;
2680;SDS011;1350;42.134;24.708;2023-07-29T03:47:27;13.23;;;6.97;;
2680;SDS011;1350;42.134;24.708;2023-07-29T03:49:54;11.83;;;6.80;;
2680;SDS011;1350;42.134;24.708;2023-07-29T03:52:20;8.90;;;5.80;;
2680;SDS011;1350;42.134;24.708;2023-07-29T03:54:47;10.50;;;8.07;;
2680;SDS011;1350;42.134;24.708;2023-07-29T03:57:14;12.53;;;7.57;;
2680;SDS011;1350;42.134;24.708;2023-07-29T03:59:42;18.27;;;7.33;;
2680;SDS011;1350;42.134;24.708;2023-07-29T04:02:09;11.50;;;7.47;;
2680;SDS011;1350;42.134;24.708;2023-07-29T04:04:35;10.13;;;7.03;;
2680;SDS011;1350;42.134;24.708;2023-07-29T04:07:02;20.00;;;9.43;;
2680;SDS011;1350;42.134;24.708;2023-07-29T04:09:29;13.87;;;7.60;;
2680;SDS011;1350;42.134;24.708;2023-07-29T04:11:56;15.00;;;7.57;;
2680;SDS011;1350;42.134;24.708;2023-07-29T04:14:23;12.53;;;7.30;;
2680;SDS011;1350;42.134;24.708;2023-07-29T04:16:51;14.63;;;8.00;;
2680;SDS011;1350;42.134;24.708;2023-07-29T04:19:18;13.53;;;8.50;;
2680;SDS011;1350;42.134;24.708;2023-07-29T04:21:44;11.23;;;7.10;;
2680;SDS011;1350;42.134;24.708;2023-07-29T04:24:11;13.03;;;7.27;;
2680;SDS011;1350;42.134;24.708;2023-07-29T04:26:38;11.50;;;7.70;;
2680;SDS011;1350;42.134;24.708;2023-07-29T04:29:05;10.20;;;7.10;;
2680;SDS011;1350;42.134;24.708;2023-07-29T04:31:31;16.13;;;7.17;;
2680;SDS011;1350;42.134;24.708;2023-07-29T04:33:59;10.80;;;7.33;;
2680;SDS011;1350;42.134;24.708;2023-07-29T04:36:26;13.67;;;7.50;;
2680;SDS011;1350;42.134;24.708;2023-07-29T04:38:54;11.77;;;6.93;;
2680;SDS011;1350;42.134;24.708;2023-07-29T04:41:20;11.63;;;7.57;;
2680;SDS011;1350;42.134;24.708;2023-07-29T04:43:47;9.67;;;6.80;;
2680;SDS011;1350;42.134;24.708;2023-07-29T04:46:15;18.47;;;8.73;;
2680;SDS011;1350;42.134;24.708;2023-07-29T04:48:42;12.23;;;8.10;;
2680;SDS011;1350;42.134;24.708;2023-07-29T04:51:10;11.70;;;7.70;;
2680;SDS011;1350;42.134;24.708;2023-07-29T04:53:36;9.27;;;6.13;;
2680;SDS011;1350;42.134;24.708;2023-07-29T04:56:03;13.87;;;9.10;;
2680;SDS011;1350;42.134;24.708;2023-07-29T04:58:31;10.30;;;6.10;;
2680;SDS011;1350;42.134;24.708;2023-07-29T05:01:00;12.17;;;7.70;;
2680;SDS011;1350;42.134;24.708;2023-07-29T05:03:27;11.10;;;7.03;;
2680;SDS011;1350;42.134;24.708;2023-07-29T05:05:54;9.50;;;6.50;;
2680;SDS011;1350;42.134;24.708;2023-07-29T05:08:23;10.80;;;6.37;;
2680;SDS011;1350;42.134;24.708;2023-07-29T05:10:50;10.87;;;6.50;;
2680;SDS011;1350;42.134;24.708;2023-07-29T05:13:17;10.67;;;6.53;;
2680;SDS011;1350;42.134;24.708;2023-07-29T05:15:44;13.27;;;7.67;;
2680;SDS011;1350;42.134;24.708;2023-07-29T05:18:11;15.80;;;7.60;;
2680;SDS011;1350;42.134;24.708;2023-07-29T05:20:38;18.47;;;8.30;;
2680;SDS011;1350;42.134;24.708;2023-07-29T05:23:04;9.33;;;5.87;;
2680;SDS011;1350;42.134;24.708;2023-07-29T05:25:33;10.30;;;6.70;;
2680;SDS011;1350;42.134;24.708;2023-07-29T05:28:00;10.23;;;6.27;;
2680;SDS011;1350;42.134;24.708;2023-07-29T05:30:27;10.30;;;6.30;;
2680;SDS011;1350;42.134;24.708;2023-07-29T05:32:56;34.77;;;24.13;;
2680;SDS011;1350;42.134;24.708;2023-07-29T05:35:24;12.33;;;6.90;;
2680;SDS011;1350;42.134;24.708;2023-07-29T05:37:50;9.77;;;5.83;;
2680;SDS011;1350;42.134;24.708;2023-07-29T05:40:17;11.30;;;5.90;;
2680;SDS011;1350;42.134;24.708;2023-07-29T05:42:45;11.17;;;5.20;;
2680;SDS011;1350;42.134;24.708;2023-07-29T05:45:13;9.40;;;5.43;;
2680;SDS011;1350;42.134;24.708;2023-07-29T05:47:39;8.90;;;5.23;;
2680;SDS011;1350;42.134;24.708;2023-07-29T05:50:08;11.00;;;5.57;;
2680;SDS011;1350;42.134;24.708;2023-07-29T05:52:35;11.03;;;5.40;;
2680;SDS011;1350;42.134;24.708;2023-07-29T05:55:03;10.20;;;4.70;;
2680;SDS011;1350;42.134;24.708;2023-07-29T05:57:30;10.33;;;5.47;;
2680;SDS011;1350;42.134;24.708;2023-07-29T05:59:58;10.63;;;5.27;;
2680;SDS011;1350;42.134;24.708;2023-07-29T06:02:25;11.53;;;3.80;;
2680;SDS011;1350;42.134;24.708;2023-07-29T06:04:52;10.60;;;5.27;;
2680;SDS011;1350;42.134;24.708;2023-07-29T06:07:18;12.93;;;4.40;;
2680;SDS011;1350;42.134;24.708;2023-07-29T06:09:45;8.30;;;4.63;;
2680;SDS011;1350;42.134;24.708;2023-07-29T06:12:12;7.53;;;4.50;;
2680;SDS011;1350;42.134;24.708;2023-07-29T06:14:39;7.90;;;4.60;;
2680;SDS011;1350;42.134;24.708;2023-07-29T06:17:07;9.77;;;4.23;;
2680;SDS011;1350;42.134;24.708;2023-07-29T06:19:36;9.10;;;4.60;;
2680;SDS011;1350;42.134;24.708;2023-07-29T06:22:03;8.33;;;4.50;;
2680;SDS011;1350;42.134;24.708;2023-07-29T06:24:30;15.00;;;4.70;;
2680;SDS011;1350;42.134;24.708;2023-07-29T06:26:57;13.13;;;6.43;;
2680;SDS011;1350;42.134;24.708;2023-07-29T06:29:24;18.97;;;16.97;;
2680;SDS011;1350;42.134;24.708;2023-07-29T06:31:51;10.00;;;5.20;;
2680;SDS011;1350;42.134;24.708;2023-07-29T06:34:20;19.63;;;9.97;;
2680;SDS011;1350;42.134;24.708;2023-07-29T06:36:47;24.97;;;22.37;;
2680;SDS011;1350;42.134;24.708;2023-07-29T06:39:14;6.77;;;3.93;;
2680;SDS011;1350;42.134;24.708;2023-07-29T06:41:41;9.70;;;4.27;;
2680;SDS011;1350;42.134;24.708;2023-07-29T06:44:07;10.63;;;4.67;;
2680;SDS011;1350;42.134;24.708;2023-07-29T06:46:34;7.50;;;3.83;;
2680;SDS011;1350;42.134;24.708;2023-07-29T06:49:01;10.73;;;4.50;;
2680;SDS011;1350;42.134;24.708;2023-07-29T06:51:29;11.70;;;4.40;;
2680;SDS011;1350;42.134;24.708;2023-07-29T06:53:59;11.03;;;4.90;;
2680;SDS011;1350;42.134;24.708;2023-07-29T06:56:26;15.43;;;5.53;;
2680;SDS011;1350;42.134;24.708;2023-07-29T06:58:53;14.70;;;4.80;;
2680;SDS011;1350;42.134;24.708;2023-07-29T07:01:19;7.50;;;4.20;;
2680;SDS011;1350;42.134;24.708;2023-07-29T07:03:48;9.67;;;4.43;;
2680;SDS011;1350;42.134;24.708;2023-07-29T07:06:15;9.83;;;5.33;;
2680;SDS011;1350;42.134;24.708;2023-07-29T07:08:43;13.13;;;5.20;;
2680;SDS011;1350;42.134;24.708;2023-07-29T07:11:10;8.67;;;4.27;;
2680;SDS011;1350;42.134;24.708;2023-07-29T07:13:37;8.50;;;5.00;;
2680;SDS011;1350;42.134;24.708;2023-07-29T07:16:05;8.90;;;4.03;;
2680;SDS011;1350;42.134;24.708;2023-07-29T07:18:32;16.97;;;5.67;;
2680;SDS011;1350;42.134;24.708;2023-07-29T07:20:59;9.00;;;4.80;;
2680;SDS011;1350;42.134;24.708;2023-07-29T07:23:25;7.33;;;4.70;;
2680;SDS011;1350;42.134;24.708;2023-07-29T07:25:53;7.77;;;4.20;;
2680;SDS011;1350;42.134;24.708;2023-07-29T07:28:20;12.30;;;5.37;;
2680;SDS011;1350;42.134;24.708;2023-07-29T07:30:47;8.13;;;3.60;;
2680;SDS011;1350;42.134;24.708;2023-07-29T07:33:14;7.33;;;4.37;;
2680;SDS011;1350;42.134;24.708;2023-07-29T07:35:40;8.13;;;5.07;;
2680;SDS011;1350;42.134;24.708;2023-07-29T07:38:08;11.97;;;10.03;;
2680;SDS011;1350;42.134;24.708;2023-07-29T07:40:35;12.03;;;7.43;;
2680;SDS011;1350;42.134;24.708;2023-07-29T07:43:03;18.23;;;5.20;;
2680;SDS011;1350;42.134;24.708;2023-07-29T07:45:31;22.23;;;5.93;;
2680;SDS011;1350;42.134;24.708;2023-07-29T07:47:58;8.00;;;4.70;;
2680;SDS011;1350;42.134;24.708;2023-07-29T07:50:25;10.83;;;4.83;;
2680;SDS011;1350;42.134;24.708;2023-07-29T07:52:54;6.23;;;3.97;;
2680;SDS011;1350;42.134;24.708;2023-07-29T07:55:24;7.37;;;4.70;;
2680;SDS011;1350;42.134;24.708;2023-07-29T07:57:51;9.30;;;4.47;;
2680;SDS011;1350;42.134;24.708;2023-07-29T08:00:19;14.53;;;4.57;;
2680;SDS011;1350;42.134;24.708;2023-07-29T08:02:46;7.50;;;4.57;;
2680;SDS011;1350;42.134;24.708;2023-07-29T08:05:13;8.13;;;4.57;;
2680;SDS011;1350;42.134;24.708;2023-07-29T08:07:40;14.20;;;5.10;;
2680;SDS011;1350;42.134;24.708;2023-07-29T08:10:07;18.60;;;8.43;;
2680;SDS011;1350;42.134;24.708;2023-07-29T08:12:34;9.10;;;5.30;;
2680;SDS011;1350;42.134;24.708;2023-07-29T08:15:01;10.30;;;5.17;;
2680;SDS011;1350;42.134;24.708;2023-07-29T08:17:30;9.30;;;5.77;;
2680;SDS011;1350;42.134;24.708;2023-07-29T08:19:57;30.37;;;6.33;;
2680;SDS011;1350;42.134;24.708;2023-07-29T08:22:23;8.80;;;4.70;;
2680;SDS011;1350;42.134;24.708;2023-07-29T08:24:50;10.07;;;5.13;;
2680;SDS011;1350;42.134;24.708;2023-07-29T08:27:17;7.30;;;4.10;;
2680;SDS011;1350;42.134;24.708;2023-07-29T08:29:44;10.43;;;4.70;;
2680;SDS011;1350;42.134;24.708;2023-07-29T08:32:11;9.70;;;4.93;;
2680;SDS011;1350;42.134;24.708;2023-07-29T08:34:39;11.90;;;4.43;;
2680;SDS011;1350;42.134;24.708;2023-07-29T08:37:06;7.57;;;4.17;;
2680;SDS011;1350;42.134;24.708;2023-07-29T08:39:32;11.77;;;5.43;;
2680;SDS011;1350;42.134;24.708;2023-07-29T08:42:00;9.00;;;4.73;;
2680;SDS011;1350;42.134;24.708;2023-07-29T08:44:32;6.80;;;4.47;;
2680;SDS011;1350;42.134;24.708;2023-07-29T08:47:02;8.03;;;5.00;;
2680;SDS011;1350;42.134;24.708;2023-07-29T08:49:29;8.23;;;5.00;;
2680;SDS011;1350;42.134;24.708;2023-07-29T08:51:57;9.80;;;4.97;;
2680;SDS011;1350;42.134;24.708;2023-07-29T08:54:25;9.90;;;5.30;;
2680;SDS011;1350;42.134;24.708;2023-07-29T08:56:52;8.60;;;5.13;;
2680;SDS011;1350;42.134;24.708;2023-07-29T08:59:19;8.77;;;5.50;;
2680;SDS011;1350;42.134;24.708;2023-07-29T09:01:47;8.57;;;4.93;;
2680;SDS011;1350;42.134;24.708;2023-07-29T09:04:14;6.80;;;4.80;;
2680;SDS011;1350;42.134;24.708;2023-07-29T09:06:41;8.57;;;4.90;;
2680;SDS011;1350;42.134;24.708;2023-07-29T09:09:12;7.77;;;4.80;;
2680;SDS011;1350;42.134;24.708;2023-07-29T09:11:39;9.80;;;5.83;;
2680;SDS011;1350;42.134;24.708;2023-07-29T09:14:06;7.30;;;4.77;;
2680;SDS011;1350;42.134;24.708;2023-07-29T09:16:32;7.30;;;4.40;;
2680;SDS011;1350;42.134;24.708;2023-07-29T09:19:00;11.23;;;5.47;;
2680;SDS011;1350;42.134;24.708;2023-07-29T09:21:28;7.10;;;4.50;;
2680;SDS011;1350;42.134;24.708;2023-07-29T09:23:56;6.90;;;4.47;;
2680;SDS011;1350;42.134;24.708;2023-07-29T09:26:24;7.17;;;5.00;;
2680;SDS011;1350;42.134;24.708;2023-07-29T09:28:52;7.30;;;4.53;;
2680;SDS011;1350;42.134;24.708;2023-07-29T09:31:20;7.47;;;4.53;;
2680;SDS011;1350;42.134;24.708;2023-07-29T09:33:48;7.70;;;4.73;;
2680;SDS011;1350;42.134;24.708;2023-07-29T09:36:15;8.40;;;5.23;;
2680;SDS011;1350;42.134;24.708;2023-07-29T09:38:42;8.50;;;4.23;;
2680;SDS011;1350;42.134;24.708;2023-07-29T09:41:11;8.77;;;5.23;;
2680;SDS011;1350;42.134;24.708;2023-07-29T09:43:40;7.90;;;5.27;;
2680;SDS011;1350;42.134;24.708;2023-07-29T09:46:07;9.03;;;4.77;;
2680;SDS011;1350;42.134;24.708;2023-07-29T09:48:34;7.00;;;4.17;;
2680;SDS011;1350;42.134;24.708;2023-07-29T09:51:09;8.80;;;4.43;;
2680;SDS011;1350;42.134;24.708;2023-07-29T09:53:38;9.33;;;4.20;;
2680;SDS011;1350;42.134;24.708;2023-07-29T09:56:06;12.53;;;5.50;;
2680;SDS011;1350;42.134;24.708;2023-07-29T09:58:33;7.17;;;3.87;;
2680;SDS011;1350;42.134;24.708;2023-07-29T10:01:01;8.80;;;5.17;;
2680;SDS011;1350;42.134;24.708;2023-07-29T10:03:28;8.53;;;4.27;;
2680;SDS011;1350;42.134;24.708;2023-07-29T10:05:59;7.20;;;4.77;;
2680;SDS011;1350;42.134;24.708;2023-07-29T10:08:27;6.73;;;4.10;;
2680;SDS011;1350;42.134;24.708;2023-07-29T10:10:56;9.23;;;5.17;;
2680;SDS011;1350;42.134;24.708;2023-07-29T10:13:25;10.27;;;4.60;;
2680;SDS011;1350;42.134;24.708;2023-07-29T10:15:53;9.63;;;4.70;;
2680;SDS011;1350;42.134;24.708;2023-07-29T10:18:22;7.20;;;3.90;;
2680;SDS011;1350;42.134;24.708;2023-07-29T10:20:50;7.20;;;4.33;;
2680;SDS011;1350;42.134;24.708;2023-07-29T10:23:18;8.50;;;5.13;;
2680;SDS011;1350;42.134;24.708;2023-07-29T10:25:49;10.23;;;4.20;;
2680;SDS011;1350;42.134;24.708;2023-07-29T10:28:21;7.13;;;4.00;;
2680;SDS011;1350;42.134;24.708;2023-07-29T10:30:51;7.93;;;4.23;;
2680;SDS011;1350;42.134;24.708;2023-07-29T10:33:18;8.83;;;4.20;;
2680;SDS011;1350;42.134;24.708;2023-07-29T10:35:46;8.47;;;4.13;;
2680;SDS011;1350;42.134;24.708;2023-07-29T10:38:13;11.47;;;4.50;;
2680;SDS011;1350;42.134;24.708;2023-07-29T10:40:45;7.07;;;3.77;;
2680;SDS011;1350;42.134;24.708;2023-07-29T10:43:18;5.83;;;3.40;;
2680;SDS011;1350;42.134;24.708;2023-07-29T10:45:50;8.40;;;3.77;;
2680;SDS011;1350;42.134;24.708;2023-07-29T10:51:23;7.00;;;3.47;;
2680;SDS011;1350;42.134;24.708;2023-07-29T10:53:56;7.00;;;3.83;;
2680;SDS011;1350;42.134;24.708;2023-07-29T10:56:27;9.03;;;3.70;;
2680;SDS011;1350;42.134;24.708;2023-07-29T10:58:56;9.60;;;3.60;;
2680;SDS011;1350;42.134;24.708;2023-07-29T11:01:27;8.23;;;3.90;;
2680;SDS011;1350;42.134;24.708;2023-07-29T11:07:03;7.33;;;3.53;;
2680;SDS011;1350;42.134;24.708;2023-07-29T11:09:51;7.33;;;3.70;;
2680;SDS011;1350;42.134;24.708;2023-07-29T11:12:33;7.40;;;4.13;;
2680;SDS011;1350;42.134;24.708;2023-07-29T11:15:02;7.00;;;4.27;;
2680;SDS011;1350;42.134;24.708;2023-07-29T11:17:32;6.97;;;3.90;;
2680;SDS011;1350;42.134;24.708;2023-07-29T11:20:00;9.43;;;4.37;;
2680;SDS011;1350;42.134;24.708;2023-07-29T11:22:29;6.63;;;3.73;;
2680;SDS011;1350;42.134;24.708;2023-07-29T11:24:56;6.10;;;3.33;;
2680;SDS011;1350;42.134;24.708;2023-07-29T11:27:23;8.63;;;3.83;;
2680;SDS011;1350;42.134;24.708;2023-07-29T11:29:50;6.00;;;3.70;;
2680;SDS011;1350;42.134;24.708;2023-07-29T11:32:22;6.00;;;3.13;;
2680;SDS011;1350;42.134;24.708;2023-07-29T11:34:49;6.27;;;2.80;;
2680;SDS011;1350;42.134;24.708;2023-07-29T11:37:16;6.30;;;3.00;;
2680;SDS011;1350;42.134;24.708;2023-07-29T11:39:44;6.47;;;3.30;;
2680;SDS011;1350;42.134;24.708;2023-07-29T11:42:11;7.00;;;3.60;;
2680;SDS011;1350;42.134;24.708;2023-07-29T11:44:38;10.00;;;3.20;;
2680;SDS011;1350;42.134;24.708;2023-07-29T11:47:06;6.33;;;3.30;;
2680;SDS011;1350;42.134;24.708;2023-07-29T11:49:32;6.00;;;3.40;;
2680;SDS011;1350;42.134;24.708;2023-07-29T11:51:59;7.53;;;3.27;;
2680;SDS011;1350;42.134;24.708;2023-07-29T11:54:27;7.80;;;3.50;;
2680;SDS011;1350;42.134;24.708;2023-07-29T11:56:55;5.97;;;3.07;;
2680;SDS011;1350;42.134;24.708;2023-07-29T11:59:22;6.40;;;3.00;;
2680;SDS011;1350;42.134;24.708;2023-07-29T12:01:49;8.60;;;3.00;;
2680;SDS011;1350;42.134;24.708;2023-07-29T12:04:16;5.30;;;2.90;;
2680;SDS011;1350;42.134;24.708;2023-07-29T12:06:43;5.83;;;2.47;;
2680;SDS011;1350;42.134;24.708;2023-07-29T12:09:10;5.30;;;2.90;;
2680;SDS011;1350;42.134;24.708;2023-07-29T12:11:38;8.00;;;3.70;;
2680;SDS011;1350;42.134;24.708;2023-07-29T12:14:08;5.73;;;3.23;;
2680;SDS011;1350;42.134;24.708;2023-07-29T12:16:40;6.80;;;3.57;;
2680;SDS011;1350;42.134;24.708;2023-07-29T12:19:07;5.33;;;3.00;;
2680;SDS011;1350;42.134;24.708;2023-07-29T12:21:33;6.23;;;3.00;;
2680;SDS011;1350;42.134;24.708;2023-07-29T12:24:02;6.20;;;3.17;;
2680;SDS011;1350;42.134;24.708;2023-07-29T12:26:29;8.37;;;3.43;;
2680;SDS011;1350;42.134;24.708;2023-07-29T12:28:56;7.23;;;4.03;;
2680;SDS011;1350;42.134;24.708;2023-07-29T12:31:28;6.60;;;3.80;;
2680;SDS011;1350;42.134;24.708;2023-07-29T12:33:58;9.73;;;3.80;;
2680;SDS011;1350;42.134;24.708;2023-07-29T12:36:27;5.83;;;3.37;;
2680;SDS011;1350;42.134;24.708;2023-07-29T12:39:06;6.90;;;3.03;;
2680;SDS011;1350;42.134;24.708;2023-07-29T12:41:32;8.30;;;2.80;;
2680;SDS011;1350;42.134;24.708;2023-07-29T12:43:59;9.30;;;3.10;;
2680;SDS011;1350;42.134;24.708;2023-07-29T12:46:30;10.07;;;3.60;;
2680;SDS011;1350;42.134;24.708;2023-07-29T12:48:56;8.53;;;2.60;;
2680;SDS011;1350;42.134;24.708;2023-07-29T12:51:23;7.50;;;3.30;;
2680;SDS011;1350;42.134;24.708;2023-07-29T12:53:50;5.83;;;2.93;;
2680;SDS011;1350;42.134;24.708;2023-07-29T12:56:17;6.03;;;2.97;;
2680;SDS011;1350;42.134;24.708;2023-07-29T12:58:43;5.53;;;2.20;;
2680;SDS011;1350;42.134;24.708;2023-07-29T13:01:10;6.30;;;2.30;;
2680;SDS011;1350;42.134;24.708;2023-07-29T13:03:43;6.30;;;2.63;;
2680;SDS011;1350;42.134;24.708;2023-07-29T13:06:10;24.33;;;4.90;;
2680;SDS011;1350;42.134;24.708;2023-07-29T13:08:36;6.97;;;2.17;;
2680;SDS011;1350;42.134;24.708;2023-07-29T13:11:03;8.83;;;2.77;;
2680;SDS011;1350;42.134;24.708;2023-07-29T13:13:31;6.43;;;2.73;;
2680;SDS011;1350;42.134;24.708;2023-07-29T13:15:58;7.67;;;2.57;;
2680;SDS011;1350;42.134;24.708;2023-07-29T13:18:25;8.53;;;2.20;;
2680;SDS011;1350;42.134;24.708;2023-07-29T13:20:53;4.73;;;2.13;;
2680;SDS011;1350;42.134;24.708;2023-07-29T13:23:20;5.50;;;1.80;;
2680;SDS011;1350;42.134;24.708;2023-07-29T13:25:46;5.57;;;1.73;;
2680;SDS011;1350;42.134;24.708;2023-07-29T13:28:13;5.30;;;2.17;;
2680;SDS011;1350;42.134;24.708;2023-07-29T13:30:40;4.80;;;1.90;;
2680;SDS011;1350;42.134;24.708;2023-07-29T13:33:07;5.33;;;1.63;;
2680;SDS011;1350;42.134;24.708;2023-07-29T13:35:33;5.40;;;1.90;;
2680;SDS011;1350;42.134;24.708;2023-07-29T13:38:02;7.77;;;2.33;;
2680;SDS011;1350;42.134;24.708;2023-07-29T13:40:29;7.00;;;1.67;;
2680;SDS011;1350;42.134;24.708;2023-07-29T13:42:56;5.80;;;1.80;;
2680;SDS011;1350;42.134;24.708;2023-07-29T13:45:22;4.83;;;1.80;;
2680;SDS011;1350;42.134;24.708;2023-07-29T13:47:49;5.20;;;2.00;;
2680;SDS011;1350;42.134;24.708;2023-07-29T13:50:16;5.03;;;1.67;;
2680;SDS011;1350;42.134;24.708;2023-07-29T13:52:44;4.90;;;1.90;;
2680;SDS011;1350;42.134;24.708;2023-07-29T13:55:12;4.70;;;1.80;;
2680;SDS011;1350;42.134;24.708;2023-07-29T13:57:39;12.50;;;2.37;;
2680;SDS011;1350;42.134;24.708;2023-07-29T14:00:06;4.73;;;1.80;;
2680;SDS011;1350;42.134;24.708;2023-07-29T14:02:34;5.07;;;1.93;;
2680;SDS011;1350;42.134;24.708;2023-07-29T14:05:01;4.63;;;1.50;;
2680;SDS011;1350;42.134;24.708;2023-07-29T14:07:28;5.80;;;1.93;;
2680;SDS011;1350;42.134;24.708;2023-07-29T14:09:54;4.90;;;1.80;;
2680;SDS011;1350;42.134;24.708;2023-07-29T14:12:22;8.43;;;2.37;;
2680;SDS011;1350;42.134;24.708;2023-07-29T14:14:49;5.00;;;2.10;;
2680;SDS011;1350;42.134;24.708;2023-07-29T14:17:16;6.70;;;2.33;;
2680;SDS011;1350;42.134;24.708;2023-07-29T14:19:43;9.13;;;2.27;;
2680;SDS011;1350;42.134;24.708;2023-07-29T14:22:09;5.00;;;2.17;;
2680;SDS011;1350;42.134;24.708;2023-07-29T14:24:36;5.57;;;2.30;;
2680;SDS011;1350;42.134;24.708;2023-07-29T14:27:03;4.90;;;2.30;;
2680;SDS011;1350;42.134;24.708;2023-07-29T14:29:32;6.57;;;1.90;;
2680;SDS011;1350;42.134;24.708;2023-07-29T14:31:59;5.43;;;2.10;;
2680;SDS011;1350;42.134;24.708;2023-07-29T14:34:25;5.83;;;2.00;;
2680;SDS011;1350;42.134;24.708;2023-07-29T14:36:52;5.90;;;2.70;;
2680;SDS011;1350;42.134;24.708;2023-07-29T14:39:19;5.80;;;2.17;;
2680;SDS011;1350;42.134;24.708;2023-07-29T14:41:46;5.70;;;2.13;;
2680;SDS011;1350;42.134;24.708;2023-07-29T14:44:12;5.70;;;1.90;;
2680;SDS011;1350;42.134;24.708;2023-07-29T14:46:41;5.00;;;2.00;;
2680;SDS011;1350;42.134;24.708;2023-07-29T14:49:07;5.73;;;1.93;;
2680;SDS011;1350;42.134;24.708;2023-07-29T14:51:34;6.77;;;2.20;;
2680;SDS011;1350;42.134;24.708;2023-07-29T14:54:01;5.73;;;2.40;;
2680;SDS011;1350;42.134;24.708;2023-07-29T14:56:28;6.10;;;2.10;;
2680;SDS011;1350;42.134;24.708;2023-07-29T14:58:55;5.23;;;2.03;;
2680;SDS011;1350;42.134;24.708;2023-07-29T15:01:21;5.97;;;1.80;;
2680;SDS011;1350;42.134;24.708;2023-07-29T15:03:49;4.97;;;1.90;;
2680;SDS011;1350;42.134;24.708;2023-07-29T15:06:16;5.73;;;2.10;;